createdAt,value
2023-01-29T00:00:24.228Z,9.27
2023-01-29T00:02:55.181Z,7.83
2023-01-29T00:05:28.328Z,8.27
2023-01-29T00:07:58.022Z,9.03
2023-01-29T00:10:26.959Z,8.63
2023-01-29T00:12:55.534Z,8.93
2023-01-29T00:15:24.680Z,9.17
2023-01-29T00:17:54.510Z,8.83
2023-01-29T00:20:23.001Z,9.30
2023-01-29T00:22:51.217Z,8.87
2023-01-29T00:25:19.193Z,8.67
2023-01-29T00:27:49.801Z,9.70
2023-01-29T00:30:20.266Z,10.07
2023-01-29T00:32:49.214Z,9.30
2023-01-29T00:35:17.804Z,9.57
2023-01-29T00:37:46.060Z,8.30
2023-01-29T00:40:15.022Z,8.67
2023-01-29T00:43:04.495Z,9.00
2023-01-29T00:45:32.688Z,9.10
2023-01-29T00:48:01.011Z,9.47
2023-01-29T00:50:29.605Z,9.00
2023-01-29T00:52:58.284Z,8.53
2023-01-29T00:55:26.580Z,8.77
2023-01-29T00:57:55.399Z,8.50
2023-01-29T01:00:26.305Z,8.80
2023-01-29T01:03:06.556Z,10.17
2023-01-29T01:05:37.233Z,8.27
2023-01-29T01:08:25.664Z,8.47
2023-01-29T01:11:00.250Z,8.60
2023-01-29T01:13:28.970Z,8.67
2023-01-29T01:15:59.919Z,9.57
2023-01-29T01:18:32.184Z,9.13
2023-01-29T01:25:57.249Z,8.93
2023-01-29T01:28:26.259Z,8.30
2023-01-29T01:30:55.086Z,8.93
2023-01-29T01:33:23.192Z,10.13
2023-01-29T01:35:51.357Z,8.83
2023-01-29T01:38:20.352Z,9.53
2023-01-29T01:40:48.413Z,9.00
2023-01-29T01:43:16.379Z,9.33
2023-01-29T01:45:47.115Z,9.53
2023-01-29T01:48:18.370Z,7.63
2023-01-29T01:51:00.180Z,8.93
2023-01-29T01:53:41.315Z,7.87
2023-01-29T01:56:13.856Z,8.40
2023-01-29T01:58:51.558Z,8.77
2023-01-29T02:01:27.456Z,9.57
2023-01-29T02:04:20.564Z,9.10
2023-01-29T02:07:07.735Z,8.53
2023-01-29T02:09:41.005Z,8.90
2023-01-29T02:12:12.359Z,8.17
2023-01-29T02:14:42.583Z,9.27
2023-01-29T02:17:21.994Z,9.50
2023-01-29T02:19:57.993Z,7.73
2023-01-29T02:23:09.054Z,9.03
2023-01-29T02:25:59.827Z,9.00
2023-01-29T02:28:59.564Z,7.67
2023-01-29T02:31:42.295Z,8.83
2023-01-29T02:34:32.311Z,8.50
2023-01-29T02:37:10.877Z,8.10
2023-01-29T02:39:58.253Z,6.50
2023-01-29T02:42:36.363Z,8.20
2023-01-29T02:45:14.759Z,8.67
2023-01-29T02:47:49.525Z,8.23
2023-01-29T02:50:54.705Z,8.03
2023-01-29T02:53:34.029Z,7.97
2023-01-29T02:56:13.074Z,8.57
2023-01-29T02:59:14.069Z,8.63
2023-01-29T03:02:07.473Z,8.73
2023-01-29T03:04:39.047Z,9.13
2023-01-29T03:07:35.049Z,8.77
2023-01-29T03:10:05.566Z,8.97
2023-01-29T03:13:02.050Z,9.47
2023-01-29T03:15:39.296Z,8.80
2023-01-29T03:18:11.436Z,8.60
2023-01-29T03:20:54.034Z,9.20
2023-01-29T03:23:44.707Z,9.20
2023-01-29T03:26:36.311Z,8.57
2023-01-29T03:29:24.059Z,8.10
2023-01-29T03:32:17.219Z,9.23
2023-01-29T03:34:52.401Z,8.90
2023-01-29T03:37:33.638Z,8.33
2023-01-29T03:40:04.493Z,9.27
2023-01-29T03:43:04.207Z,8.43
2023-01-29T03:46:02.963Z,8.67
2023-01-29T03:48:54.066Z,8.53
2023-01-29T03:51:40.949Z,7.53
2023-01-29T03:54:18.874Z,7.70
2023-01-29T03:57:03.858Z,8.23
2023-01-29T03:59:53.730Z,7.93
2023-01-29T04:02:32.224Z,8.17
2023-01-29T04:05:05.373Z,8.37
2023-01-29T04:07:35.056Z,8.70
2023-01-29T04:10:13.640Z,7.23
2023-01-29T04:12:47.830Z,8.60
2023-01-29T04:15:18.169Z,7.50
2023-01-29T04:17:53.044Z,8.07
2023-01-29T04:20:21.439Z,7.90
2023-01-29T04:22:51.418Z,8.63
2023-01-29T04:25:32.595Z,8.93
2023-01-29T04:28:29.583Z,8.47
2023-01-29T04:31:02.362Z,9.10
2023-01-29T04:33:57.790Z,8.27
2023-01-29T04:36:38.303Z,8.10
2023-01-29T04:39:45.151Z,8.47
2023-01-29T04:43:01.883Z,8.47
2023-01-29T04:45:49.371Z,8.30
2023-01-29T04:48:26.383Z,9.60
2023-01-29T04:51:12.097Z,10.30
2023-01-29T04:53:59.092Z,8.90
2023-01-29T04:56:34.217Z,9.30
2023-01-29T04:59:15.005Z,9.60
2023-01-29T05:01:46.999Z,9.43
2023-01-29T05:04:17.310Z,9.33
2023-01-29T05:06:47.735Z,10.47
2023-01-29T05:09:17.708Z,9.00
2023-01-29T05:11:51.699Z,9.77
2023-01-29T05:14:20.534Z,11.33
2023-01-29T05:16:52.288Z,12.40
2023-01-29T05:19:20.716Z,14.93
2023-01-29T05:21:50.965Z,15.40
2023-01-29T05:24:26.211Z,14.37
2023-01-29T05:27:16.973Z,15.53
2023-01-29T05:29:47.631Z,14.57
2023-01-29T05:32:16.135Z,14.67
2023-01-29T05:34:44.571Z,16.10
2023-01-29T05:37:12.896Z,18.53
2023-01-29T05:39:41.093Z,16.87
2023-01-29T05:42:09.079Z,16.57
2023-01-29T05:44:37.678Z,16.73
2023-01-29T05:47:06.087Z,17.23
2023-01-29T05:49:34.087Z,17.83
2023-01-29T05:52:02.302Z,17.17
2023-01-29T05:54:30.612Z,20.00
2023-01-29T05:56:59.072Z,18.67
2023-01-29T05:59:27.293Z,22.40
2023-01-29T06:01:55.483Z,19.77
2023-01-29T06:04:23.435Z,19.23
2023-01-29T06:06:52.111Z,19.17
2023-01-29T06:09:20.358Z,16.87
2023-01-29T06:11:48.632Z,17.47
2023-01-29T06:14:16.701Z,17.57
2023-01-29T06:16:46.737Z,17.53
2023-01-29T06:19:14.944Z,17.30
2023-01-29T06:21:42.948Z,18.50
2023-01-29T06:24:10.979Z,16.13
2023-01-29T06:26:39.307Z,15.03
2023-01-29T06:29:07.429Z,16.13
2023-01-29T06:31:39.683Z,10.73
2023-01-29T06:34:09.255Z,13.87
2023-01-29T06:36:39.408Z,13.90
2023-01-29T06:39:07.534Z,13.07
2023-01-29T06:41:36.195Z,12.90
2023-01-29T06:44:04.355Z,15.03
2023-01-29T06:46:32.787Z,14.80
2023-01-29T06:49:01.182Z,14.87
2023-01-29T06:51:31.047Z,13.13
2023-01-29T06:54:01.728Z,13.80
2023-01-29T06:56:30.256Z,13.67
2023-01-29T06:58:58.394Z,13.43
2023-01-29T07:01:35.716Z,14.87
2023-01-29T07:04:05.105Z,14.93
2023-01-29T07:06:34.065Z,13.97
2023-01-29T07:09:04.071Z,14.80
2023-01-29T07:11:37.719Z,13.43
2023-01-29T07:14:08.125Z,14.20
2023-01-29T07:16:36.349Z,13.43
2023-01-29T07:19:04.748Z,14.27
2023-01-29T07:21:33.067Z,12.67
2023-01-29T07:24:03.160Z,12.33
2023-01-29T07:26:31.621Z,11.73
2023-01-29T07:28:59.807Z,12.13
2023-01-29T07:31:30.093Z,12.67
2023-01-29T07:33:58.368Z,11.63
2023-01-29T07:36:27.824Z,12.37
2023-01-29T07:38:56.181Z,11.63
2023-01-29T07:41:24.986Z,12.07
2023-01-29T07:43:53.969Z,13.90
2023-01-29T07:46:22.508Z,13.93
2023-01-29T07:48:52.622Z,12.83
2023-01-29T07:51:21.779Z,12.57
2023-01-29T07:53:50.053Z,13.37
2023-01-29T07:56:18.132Z,13.60
2023-01-29T07:58:46.162Z,13.57
2023-01-29T08:01:14.759Z,14.13
2023-01-29T08:03:43.575Z,14.10
2023-01-29T08:06:11.697Z,14.13
2023-01-29T08:08:40.126Z,15.23
2023-01-29T08:11:08.145Z,13.53
2023-01-29T08:13:40.005Z,13.37
2023-01-29T08:16:08.770Z,13.10
2023-01-29T08:18:38.371Z,13.83
2023-01-29T08:21:06.319Z,12.93
2023-01-29T08:23:34.091Z,13.23
2023-01-29T08:26:05.319Z,14.80
2023-01-29T08:28:35.884Z,12.77
2023-01-29T08:31:03.915Z,12.87
2023-01-29T08:33:39.293Z,14.43
2023-01-29T08:36:09.735Z,13.13
2023-01-29T08:38:38.423Z,13.50
2023-01-29T08:41:08.028Z,12.67
2023-01-29T08:43:40.909Z,13.37
2023-01-29T08:46:11.923Z,13.47
2023-01-29T08:48:40.326Z,12.63
2023-01-29T08:51:08.903Z,13.17
2023-01-29T08:53:38.130Z,14.00
2023-01-29T08:56:11.879Z,14.83
2023-01-29T08:58:40.290Z,14.93
2023-01-29T09:01:13.382Z,15.10
2023-01-29T09:03:44.016Z,14.30
2023-01-29T09:06:13.186Z,13.30
2023-01-29T09:08:44.498Z,14.60
2023-01-29T09:11:12.751Z,11.90
2023-01-29T09:13:41.200Z,12.93
2023-01-29T09:16:13.191Z,12.87
2023-01-29T09:18:42.083Z,13.90
2023-01-29T09:21:09.969Z,13.43
2023-01-29T09:23:38.773Z,11.60
2023-01-29T09:26:09.225Z,12.00
2023-01-29T09:28:37.808Z,10.93
2023-01-29T09:31:05.963Z,12.80
2023-01-29T09:33:34.311Z,13.97
2023-01-29T09:36:04.585Z,17.37
2023-01-29T09:38:32.940Z,15.10
2023-01-29T09:41:06.853Z,14.63
2023-01-29T09:43:50.085Z,12.90
2023-01-29T09:47:01.115Z,12.87
2023-01-29T09:49:38.378Z,11.57
2023-01-29T09:52:23.033Z,11.67
2023-01-29T09:55:05.356Z,11.73
2023-01-29T09:57:58.355Z,12.17
2023-01-29T10:00:54.003Z,15.23
2023-01-29T10:03:41.627Z,15.23
2023-01-29T10:06:09.825Z,15.40
2023-01-29T10:08:56.672Z,14.37
2023-01-29T10:11:27.264Z,12.77
2023-01-29T10:14:21.205Z,12.40
2023-01-29T10:17:24.261Z,10.77
2023-01-29T10:20:27.231Z,10.83
2023-01-29T10:23:14.232Z,11.73
2023-01-29T10:25:43.358Z,11.50
2023-01-29T10:28:35.249Z,12.90
2023-01-29T10:31:16.797Z,12.93
2023-01-29T10:34:02.035Z,12.47
2023-01-29T10:36:43.234Z,13.03
2023-01-29T10:39:21.748Z,13.77
2023-01-29T10:42:09.125Z,12.90
2023-01-29T10:44:45.371Z,12.57
2023-01-29T10:47:51.155Z,13.33
2023-01-29T10:50:44.829Z,12.83
2023-01-29T10:53:35.295Z,13.10
2023-01-29T10:56:22.838Z,12.23
2023-01-29T10:58:59.883Z,14.23
2023-01-29T11:01:28.466Z,12.03
2023-01-29T11:03:59.870Z,13.43
2023-01-29T11:06:36.639Z,14.40
2023-01-29T11:09:19.559Z,14.10
2023-01-29T11:11:58.550Z,13.17
2023-01-29T11:14:45.582Z,10.87
2023-01-29T11:17:23.440Z,14.00
2023-01-29T11:19:53.731Z,13.83
2023-01-29T11:22:29.241Z,12.30
2023-01-29T11:25:20.277Z,12.57
2023-01-29T11:27:52.951Z,13.97
2023-01-29T11:30:30.841Z,12.07
2023-01-29T11:33:18.630Z,11.17
2023-01-29T11:35:47.985Z,13.63
2023-01-29T11:38:16.544Z,12.13
2023-01-29T11:40:47.805Z,12.90
2023-01-29T11:43:32.618Z,13.83
2023-01-29T11:46:07.783Z,14.47
2023-01-29T11:48:50.482Z,15.50
2023-01-29T11:51:29.505Z,13.90
2023-01-29T11:54:00.396Z,12.60
2023-01-29T11:56:43.040Z,15.57
2023-01-29T11:59:50.679Z,12.80
2023-01-29T12:02:18.902Z,15.03
2023-01-29T12:04:47.839Z,14.43
2023-01-29T12:07:17.836Z,14.90
2023-01-29T12:09:57.509Z,14.17
2023-01-29T12:12:32.593Z,15.83
2023-01-29T12:15:11.071Z,15.47
2023-01-29T12:17:39.704Z,15.70
2023-01-29T12:20:23.913Z,15.50
2023-01-29T12:23:05.774Z,16.10
2023-01-29T12:25:45.741Z,14.87
2023-01-29T12:28:24.460Z,14.57
2023-01-29T12:31:24.571Z,15.13
2023-01-29T12:34:17.852Z,15.00
2023-01-29T12:37:25.064Z,16.77
2023-01-29T12:39:56.976Z,14.23
2023-01-29T12:42:25.931Z,17.33
2023-01-29T12:44:59.023Z,18.27
2023-01-29T12:47:41.896Z,16.83
2023-01-29T12:50:28.866Z,16.00
2023-01-29T12:53:08.141Z,15.63
2023-01-29T12:55:45.444Z,15.37
2023-01-29T12:58:21.610Z,15.37
2023-01-29T13:00:52.669Z,15.13
2023-01-29T13:04:12.248Z,14.27
2023-01-29T13:06:43.587Z,13.77
2023-01-29T13:09:19.410Z,12.43
2023-01-29T13:11:52.904Z,14.47
2023-01-29T13:14:25.066Z,14.30
2023-01-29T13:16:58.637Z,14.93
2023-01-29T13:19:35.010Z,12.67
2023-01-29T13:22:15.776Z,14.13
2023-01-29T13:24:58.605Z,13.67
2023-01-29T13:27:34.212Z,12.73
2023-01-29T13:30:04.530Z,12.57
2023-01-29T13:32:35.456Z,13.47
2023-01-29T13:35:05.878Z,13.97
2023-01-29T13:37:52.065Z,14.47
2023-01-29T13:40:26.766Z,13.10
2023-01-29T13:43:00.607Z,14.67
2023-01-29T13:45:37.397Z,13.47
2023-01-29T13:48:24.924Z,13.50
2023-01-29T13:50:54.232Z,13.93
2023-01-29T13:53:30.185Z,12.80
2023-01-29T13:56:31.213Z,12.27
2023-01-29T13:59:02.963Z,14.07
2023-01-29T14:01:49.850Z,12.50
2023-01-29T14:04:47.242Z,12.03
2023-01-29T14:07:46.473Z,12.27
2023-01-29T14:10:20.624Z,12.93
2023-01-29T14:13:19.166Z,13.33
2023-01-29T14:15:59.583Z,13.27
2023-01-29T14:18:33.135Z,10.40
2023-01-29T14:21:17.387Z,13.20
2023-01-29T14:23:51.414Z,12.43
2023-01-29T14:26:29.752Z,12.97
2023-01-29T14:29:02.598Z,12.87
2023-01-29T14:31:43.870Z,12.43
2023-01-29T14:34:36.051Z,13.27
2023-01-29T14:37:44.539Z,13.37
2023-01-29T14:40:12.806Z,13.80
2023-01-29T14:43:03.458Z,13.30
2023-01-29T14:45:42.112Z,13.33
2023-01-29T14:48:10.543Z,13.87
2023-01-29T14:50:45.001Z,15.23
2023-01-29T14:53:30.828Z,14.77
2023-01-29T14:56:05.761Z,12.20
2023-01-29T14:58:51.062Z,13.33
2023-01-29T15:01:31.347Z,14.80
2023-01-29T15:04:19.769Z,15.23
2023-01-29T15:06:56.175Z,13.73
2023-01-29T15:10:21.943Z,15.43
2023-01-29T15:13:02.670Z,14.03
2023-01-29T15:15:52.074Z,15.30
2023-01-29T15:18:35.637Z,13.83
2023-01-29T15:21:15.451Z,14.63
2023-01-29T15:23:45.237Z,11.27
2023-01-29T15:26:19.539Z,15.43
2023-01-29T15:29:04.796Z,13.60
2023-01-29T15:31:34.703Z,15.30
2023-01-29T15:34:09.902Z,15.20
2023-01-29T15:36:40.090Z,15.57
2023-01-29T15:39:19.282Z,14.83
2023-01-29T15:41:48.273Z,15.17
2023-01-29T15:44:19.252Z,15.57
2023-01-29T15:46:54.044Z,15.70
2023-01-29T15:49:31.266Z,15.93
2023-01-29T15:52:02.432Z,14.30
2023-01-29T15:54:32.269Z,14.13
2023-01-29T15:57:05.781Z,15.67
2023-01-29T15:59:44.939Z,15.30
2023-01-29T16:02:42.645Z,14.43
2023-01-29T16:05:18.389Z,13.93
2023-01-29T16:07:47.381Z,14.20
2023-01-29T16:10:27.299Z,13.77
2023-01-29T16:12:55.839Z,14.37
2023-01-29T16:15:36.224Z,13.70
2023-01-29T16:18:20.495Z,13.87
2023-01-29T16:20:55.070Z,12.53
2023-01-29T16:23:28.184Z,13.83
2023-01-29T16:26:02.118Z,14.73
2023-01-29T16:28:30.926Z,14.70
2023-01-29T16:31:04.118Z,13.83
2023-01-29T16:33:38.723Z,14.37
2023-01-29T16:36:18.651Z,12.33
2023-01-29T16:39:13.238Z,12.67
2023-01-29T16:41:41.314Z,12.90
2023-01-29T16:44:21.688Z,14.17
2023-01-29T16:46:53.176Z,13.50
2023-01-29T16:49:30.110Z,15.07
2023-01-29T16:52:19.916Z,13.43
2023-01-29T16:54:48.026Z,13.33
2023-01-29T16:57:25.641Z,13.27
2023-01-29T16:59:58.765Z,15.73
2023-01-29T17:02:29.398Z,13.50
2023-01-29T17:05:01.207Z,13.13
2023-01-29T17:07:30.399Z,12.63
2023-01-29T17:10:01.199Z,13.57
2023-01-29T17:12:33.164Z,13.23
2023-01-29T17:15:06.512Z,12.77
2023-01-29T17:17:36.762Z,11.30
2023-01-29T17:20:30.384Z,12.53
2023-01-29T17:22:59.183Z,13.27
2023-01-29T17:25:30.544Z,13.50
2023-01-29T17:28:07.543Z,13.03
2023-01-29T17:30:40.767Z,13.33
2023-01-29T17:33:17.700Z,11.80
2023-01-29T17:35:46.199Z,12.37
2023-01-29T17:38:25.556Z,10.60
2023-01-29T17:41:01.238Z,12.10
2023-01-29T17:43:30.331Z,10.97
2023-01-29T17:45:58.535Z,9.63
2023-01-29T17:48:29.692Z,10.57
2023-01-29T17:51:00.419Z,10.63
2023-01-29T17:53:44.245Z,10.03
2023-01-29T17:56:29.817Z,8.67
2023-01-29T17:58:58.179Z,8.03
2023-01-29T18:01:26.294Z,7.80
2023-01-29T18:03:54.741Z,9.27
2023-01-29T18:06:27.940Z,9.93
2023-01-29T18:08:59.370Z,8.23
2023-01-29T18:11:29.539Z,8.20
2023-01-29T18:13:58.985Z,8.03
2023-01-29T18:16:37.706Z,8.97
2023-01-29T18:19:31.479Z,7.73
2023-01-29T18:22:00.126Z,6.73
2023-01-29T18:24:28.548Z,6.30
2023-01-29T18:26:57.123Z,8.13
2023-01-29T18:29:30.335Z,8.30
2023-01-29T18:31:59.105Z,8.27
2023-01-29T18:34:27.587Z,7.27
2023-01-29T18:36:57.883Z,8.47
2023-01-29T18:39:26.625Z,8.10
2023-01-29T18:42:19.890Z,8.53
2023-01-29T18:44:49.480Z,7.67
2023-01-29T18:47:20.649Z,8.10
2023-01-29T18:49:49.203Z,7.57
2023-01-29T18:52:19.112Z,7.60
2023-01-29T18:54:48.141Z,7.10
2023-01-29T18:58:29.196Z,7.20
2023-01-29T19:00:07.526Z,7.80
2023-01-29T19:02:36.981Z,7.87
2023-01-29T19:05:05.974Z,7.00
2023-01-29T19:07:34.679Z,8.60
2023-01-29T19:10:05.201Z,6.80
2023-01-29T19:12:34.662Z,7.87
2023-01-29T19:15:02.710Z,7.80
2023-01-29T19:17:30.902Z,7.77
2023-01-29T19:20:02.590Z,7.73
2023-01-29T19:22:32.380Z,7.37
2023-01-29T19:25:00.803Z,6.67
2023-01-29T19:27:30.880Z,7.83
2023-01-29T19:29:59.947Z,6.97
2023-01-29T19:32:29.351Z,6.93
2023-01-29T19:34:59.389Z,8.10
2023-01-29T19:37:28.658Z,6.93
2023-01-29T19:40:01.237Z,8.20
2023-01-29T19:42:30.972Z,7.30
2023-01-29T19:45:02.781Z,7.30
2023-01-29T19:47:32.826Z,6.97
2023-01-29T19:50:00.938Z,6.57
2023-01-29T19:52:51.467Z,8.27
2023-01-29T19:55:23.513Z,7.17
2023-01-29T19:57:58.316Z,7.90
2023-01-29T20:00:26.394Z,7.30
2023-01-29T20:02:55.820Z,8.53
2023-01-29T20:05:27.529Z,8.57
2023-01-29T20:07:55.471Z,7.87
2023-01-29T20:10:23.953Z,8.40
2023-01-29T20:12:51.953Z,9.50
2023-01-29T20:15:20.634Z,7.80
2023-01-29T20:17:49.332Z,8.10
2023-01-29T20:20:21.419Z,7.30
2023-01-29T20:22:51.709Z,7.13
2023-01-29T20:25:23.338Z,7.93
2023-01-29T20:27:53.103Z,8.10
2023-01-29T20:30:22.115Z,7.87
2023-01-29T20:32:50.101Z,7.60
2023-01-29T20:35:18.473Z,7.47
2023-01-29T20:37:46.501Z,6.20
2023-01-29T20:40:17.354Z,8.10
2023-01-29T20:42:49.613Z,7.07
2023-01-29T20:45:17.941Z,6.97
2023-01-29T20:47:50.533Z,7.67
2023-01-29T20:50:20.480Z,7.80
2023-01-29T20:52:49.327Z,7.03
2023-01-29T20:55:17.985Z,7.23
2023-01-29T20:58:06.368Z,7.67
2023-01-29T21:00:35.365Z,7.27
2023-01-29T21:03:03.823Z,7.20
2023-01-29T21:05:35.353Z,7.70
2023-01-29T21:08:04.001Z,8.23
2023-01-29T21:10:32.563Z,7.93
2023-01-29T21:13:04.374Z,7.20
2023-01-29T21:15:32.520Z,7.60
2023-01-29T21:18:04.882Z,7.87
2023-01-29T21:20:33.146Z,7.70
2023-01-29T21:23:05.904Z,7.10
2023-01-29T21:25:35.411Z,7.23
2023-01-29T21:28:04.755Z,7.90
2023-01-29T21:30:33.318Z,7.83
2023-01-29T21:33:02.639Z,7.63
2023-01-29T21:35:31.469Z,7.30
2023-01-29T21:38:00.028Z,7.40
2023-01-29T21:40:30.814Z,8.07
2023-01-29T21:43:15.877Z,8.70
2023-01-29T21:45:44.619Z,6.90
2023-01-29T21:48:12.807Z,7.43
2023-01-29T21:50:41.008Z,8.27
2023-01-29T21:53:09.770Z,7.07
2023-01-29T21:55:38.096Z,8.53
2023-01-29T21:58:07.212Z,7.43
2023-01-29T22:00:36.568Z,7.10
2023-01-29T22:03:07.125Z,7.13
2023-01-29T22:05:35.637Z,7.00
2023-01-29T22:08:05.090Z,7.57
2023-01-29T22:10:35.488Z,6.73
2023-01-29T22:13:05.657Z,6.93
2023-01-29T22:15:35.132Z,7.63
2023-01-29T22:18:04.385Z,7.33
2023-01-29T22:20:33.093Z,7.60
2023-01-29T22:23:02.231Z,8.00
2023-01-29T22:25:32.774Z,8.60
2023-01-29T22:28:01.441Z,7.37
2023-01-29T22:30:29.837Z,8.27
2023-01-29T22:32:58.151Z,7.87
2023-01-29T22:35:26.189Z,6.20
2023-01-29T22:37:54.841Z,8.17
2023-01-29T22:40:23.237Z,9.30
2023-01-29T22:42:51.534Z,7.47
2023-01-29T22:45:22.322Z,7.63
2023-01-29T22:47:51.340Z,8.40
2023-01-29T22:50:20.001Z,8.43
2023-01-29T22:52:54.231Z,8.40
2023-01-29T22:55:24.458Z,8.40
2023-01-29T22:57:53.891Z,8.50
2023-01-29T23:00:22.250Z,8.63
2023-01-29T23:02:50.758Z,6.03
2023-01-29T23:05:20.740Z,7.67
2023-01-29T23:07:53.484Z,8.87
2023-01-29T23:10:31.186Z,8.97
2023-01-29T23:12:59.447Z,9.00
2023-01-29T23:15:28.282Z,7.80
2023-01-29T23:17:56.449Z,10.53
2023-01-29T23:20:28.799Z,11.83
2023-01-29T23:22:57.494Z,12.60
2023-01-29T23:25:48.665Z,13.73
2023-01-29T23:28:18.744Z,13.47
2023-01-29T23:30:52.326Z,14.67
2023-01-29T23:33:20.684Z,13.63
2023-01-29T23:35:49.047Z,14.40
2023-01-29T23:38:17.758Z,11.87
2023-01-29T23:40:47.518Z,12.83
2023-01-29T23:43:15.791Z,12.97
2023-01-29T23:45:44.364Z,12.53
2023-01-29T23:48:12.921Z,9.63
2023-01-29T23:50:45.014Z,12.30
2023-01-29T23:53:13.657Z,11.37
2023-01-29T23:55:42.778Z,10.20
2023-01-29T23:58:13.800Z,9.27
